Time;durP1;ratioP1;P1;durP2;ratioP2;P2;SDS_P1;SDS_P2;PMS_P1;PMS_P2;Temp;Humidity;BMP_temperature;BMP_pressure;BME280_temperature;BME280_humidity;BME280_pressure;Samples;Min_cycle;Max_cycle;Signal;HPM_P1;HPM_P2
2020/12/08 00:00:33;;;;;;;45.30;22.70;;;3.60;99.90;;;;;;5060201;28;20033;-70
2020/12/08 00:02:59;;;;;;;37.83;21.98;;;3.60;99.90;;;;;;5070350;28;20027;-70
2020/12/08 00:05:24;;;;;;;44.33;24.05;;;3.60;99.90;;;;;;5056592;28;20021;-69
2020/12/08 00:07:50;;;;;;;45.28;24.35;;;3.60;99.90;;;;;;5062549;28;20041;-70
2020/12/08 00:10:19;;;;;;;41.78;23.48;;;3.70;99.90;;;;;;5061519;28;20392;-70
2020/12/08 00:12:52;;;;;;;42.63;23.55;;;3.70;99.90;;;;;;5061371;28;20029;-70
2020/12/08 00:15:18;;;;;;;34.78;20.80;;;3.80;99.90;;;;;;5053414;28;20407;-70
2020/12/08 00:17:45;;;;;;;48.10;23.77;;;3.70;99.90;;;;;;5056157;28;20086;-70
2020/12/08 00:20:11;;;;;;;42.30;23.15;;;3.70;99.90;;;;;;5055849;28;20542;-70
2020/12/08 00:22:38;;;;;;;43.40;20.98;;;3.80;99.90;;;;;;5065135;28;20028;-69
2020/12/08 00:25:05;;;;;;;48.47;24.83;;;3.70;99.90;;;;;;5055691;28;20047;-70
2020/12/08 00:27:31;;;;;;;54.45;25.90;;;3.80;99.90;;;;;;5060867;28;20020;-70
2020/12/08 00:29:57;;;;;;;41.20;21.95;;;3.80;99.90;;;;;;5054437;28;20093;-70
2020/12/08 00:32:23;;;;;;;47.75;24.50;;;3.70;99.90;;;;;;5062002;28;20021;-72
2020/12/08 00:34:48;;;;;;;60.05;27.77;;;3.60;99.90;;;;;;5051699;28;20067;-70
2020/12/08 00:37:14;;;;;;;45.17;23.92;;;3.60;99.90;;;;;;5053937;28;20036;-70
2020/12/08 00:39:39;;;;;;;47.50;23.90;;;3.60;99.90;;;;;;5051606;28;20114;-70
2020/12/08 00:42:06;;;;;;;42.25;22.42;;;3.60;99.90;;;;;;5051770;28;20103;-70
2020/12/08 00:44:35;;;;;;;35.78;20.63;;;3.60;99.90;;;;;;5058251;28;20020;-69
2020/12/08 00:47:03;;;;;;;43.65;23.75;;;3.40;99.90;;;;;;5062062;28;20025;-69
2020/12/08 00:49:28;;;;;;;41.97;22.60;;;3.50;99.90;;;;;;5053699;28;20029;-70
2020/12/08 00:52:01;;;;;;;45.03;22.55;;;3.40;99.90;;;;;;5061250;28;20029;-69
2020/12/08 00:54:27;;;;;;;59.55;26.85;;;3.40;99.90;;;;;;5062022;28;20028;-69
2020/12/08 00:56:53;;;;;;;89.72;30.52;;;3.40;99.90;;;;;;5055008;28;20029;-69
2020/12/08 00:59:18;;;;;;;46.15;22.63;;;3.30;99.90;;;;;;5053957;28;20031;-70
2020/12/08 01:01:44;;;;;;;44.00;24.65;;;3.30;99.90;;;;;;5052330;28;20029;-70
2020/12/08 01:04:10;;;;;;;41.17;21.67;;;3.40;99.90;;;;;;5051248;28;20029;-69
2020/12/08 01:06:40;;;;;;;48.25;24.40;;;3.30;99.90;;;;;;5060435;28;20109;-70
2020/12/08 01:09:06;;;;;;;48.90;24.38;;;3.30;99.90;;;;;;5052806;28;20024;-70
2020/12/08 01:11:39;;;;;;;37.88;21.67;;;3.20;99.90;;;;;;5059845;28;20020;-69
2020/12/08 01:14:04;;;;;;;48.97;24.02;;;3.20;99.90;;;;;;5053249;28;20020;-70
2020/12/08 01:16:30;;;;;;;45.40;22.98;;;3.20;99.90;;;;;;5058804;28;20021;-70
2020/12/08 01:18:56;;;;;;;42.78;21.90;;;3.10;99.90;;;;;;5051794;28;20055;-70
2020/12/08 01:21:22;;;;;;;41.50;24.00;;;3.10;99.90;;;;;;5053587;28;20094;-70
2020/12/08 01:23:49;;;;;;;52.30;26.55;;;3.00;99.90;;;;;;5051013;28;20032;-70
2020/12/08 01:26:22;;;;;;;42.60;24.17;;;3.10;99.90;;;;;;5056597;28;20033;-71
2020/12/08 01:28:48;;;;;;;49.20;24.92;;;3.00;99.90;;;;;;5040333;28;20033;-69
2020/12/08 01:31:15;;;;;;;46.08;24.23;;;3.00;99.90;;;;;;5066678;28;20036;-70
2020/12/08 01:33:41;;;;;;;48.40;25.73;;;3.00;99.90;;;;;;5068313;28;20077;-69
2020/12/08 01:36:11;;;;;;;47.55;25.45;;;3.00;99.90;;;;;;5054277;28;20029;-69
2020/12/08 01:38:36;;;;;;;69.25;27.58;;;3.00;99.90;;;;;;5064606;28;20028;-70
2020/12/08 01:41:04;;;;;;;41.47;22.65;;;3.00;99.90;;;;;;5066651;28;20108;-69
2020/12/08 01:43:31;;;;;;;44.25;22.88;;;3.00;99.90;;;;;;5064418;28;20032;-69
2020/12/08 01:45:57;;;;;;;45.55;24.08;;;3.10;99.90;;;;;;5051537;28;20198;-69
2020/12/08 01:48:23;;;;;;;46.50;22.75;;;3.00;99.90;;;;;;5054209;28;20108;-69
2020/12/08 01:50:49;;;;;;;48.70;25.25;;;3.00;99.90;;;;;;5052548;28;20194;-69
2020/12/08 01:53:16;;;;;;;50.08;25.50;;;2.90;99.90;;;;;;5060393;28;20115;-70
2020/12/08 01:55:42;;;;;;;49.45;25.13;;;3.00;99.90;;;;;;5053191;28;20045;-69
2020/12/08 01:58:22;;;;;;;52.20;25.48;;;3.00;99.90;;;;;;5054498;28;20041;-69
2020/12/08 02:00:49;;;;;;;48.97;23.98;;;2.90;99.90;;;;;;5056068;28;20054;-70
2020/12/08 02:03:16;;;;;;;49.83;24.48;;;2.90;99.90;;;;;;5055394;28;20024;-69
2020/12/08 02:05:44;;;;;;;55.65;27.48;;;3.00;99.90;;;;;;5056334;28;20108;-70
2020/12/08 02:08:10;;;;;;;53.97;27.45;;;2.90;99.90;;;;;;5057438;28;20017;-69
2020/12/08 02:10:36;;;;;;;62.45;27.13;;;2.90;99.90;;;;;;5062239;28;20090;-70
2020/12/08 02:13:10;;;;;;;71.70;28.00;;;2.80;99.90;;;;;;5056472;28;20057;-69
2020/12/08 02:15:36;;;;;;;51.33;24.63;;;2.80;99.90;;;;;;5056176;28;20033;-69
2020/12/08 02:18:03;;;;;;;72.57;28.08;;;2.80;99.90;;;;;;5055586;28;20040;-69
2020/12/08 02:20:28;;;;;;;43.17;21.33;;;2.80;99.90;;;;;;5055177;28;20541;-69
2020/12/08 02:23:00;;;;;;;66.63;27.48;;;2.80;99.90;;;;;;5058538;28;20139;-69
2020/12/08 02:25:26;;;;;;;73.18;28.33;;;2.80;99.90;;;;;;5053011;28;20017;-69
2020/12/08 02:27:54;;;;;;;67.35;28.50;;;2.70;99.90;;;;;;5054621;28;20044;-69
2020/12/08 02:30:20;;;;;;;59.50;26.88;;;2.70;99.90;;;;;;5054225;28;20469;-69
2020/12/08 02:32:45;;;;;;;67.78;27.25;;;2.70;99.90;;;;;;5055100;28;20044;-70
2020/12/08 02:35:11;;;;;;;55.42;25.95;;;2.70;99.90;;;;;;5057340;28;21324;-69
2020/12/08 02:37:38;;;;;;;49.95;23.70;;;2.70;99.90;;;;;;5051477;28;20037;-69
2020/12/08 02:40:05;;;;;;;46.33;22.90;;;2.70;99.90;;;;;;5055870;28;20025;-69
2020/12/08 02:42:31;;;;;;;52.80;24.40;;;2.70;99.90;;;;;;5056955;28;20070;-70
2020/12/08 02:44:57;;;;;;;54.95;25.58;;;2.60;99.90;;;;;;5054976;28;20500;-69
2020/12/08 02:47:23;;;;;;;63.28;25.83;;;2.60;99.90;;;;;;5052714;28;20773;-70
2020/12/08 02:49:49;;;;;;;52.38;24.20;;;2.60;99.90;;;;;;5052863;28;20025;-70
2020/12/08 02:52:16;;;;;;;50.33;24.25;;;2.50;99.90;;;;;;5053129;28;20473;-70
2020/12/08 02:54:41;;;;;;;44.83;22.85;;;2.50;99.90;;;;;;5054541;28;20032;-70
2020/12/08 02:57:07;;;;;;;51.20;24.13;;;2.50;99.90;;;;;;5054532;28;20064;-70
2020/12/08 02:59:37;;;;;;;66.20;26.58;;;2.50;99.90;;;;;;5053841;28;20774;-70
2020/12/08 03:02:03;;;;;;;60.63;26.90;;;2.50;99.90;;;;;;5055671;28;20025;-70
2020/12/08 03:04:28;;;;;;;51.55;26.27;;;2.50;99.90;;;;;;5052246;28;20028;-70
2020/12/08 03:06:54;;;;;;;50.17;23.73;;;2.50;99.90;;;;;;5058326;28;20070;-70
2020/12/08 03:09:21;;;;;;;55.85;25.52;;;2.50;99.90;;;;;;5057630;28;20036;-70
2020/12/08 03:11:47;;;;;;;48.78;23.77;;;2.50;99.90;;;;;;5059929;28;20619;-71
2020/12/08 03:14:13;;;;;;;43.55;21.42;;;2.60;99.90;;;;;;5051682;28;20036;-70
2020/12/08 03:16:38;;;;;;;45.40;20.52;;;2.60;99.90;;;;;;5053835;28;20090;-70
2020/12/08 03:19:05;;;;;;;44.97;21.48;;;2.60;99.90;;;;;;5055546;28;20386;-70
2020/12/08 03:21:36;;;;;;;46.50;21.50;;;2.60;99.90;;;;;;5055998;28;20036;-70
2020/12/08 03:24:02;;;;;;;50.15;22.05;;;2.60;99.90;;;;;;5049313;28;20121;-70
2020/12/08 03:26:28;;;;;;;46.90;21.80;;;2.60;99.90;;;;;;5052200;28;20111;-70
2020/12/08 03:28:55;;;;;;;55.72;25.73;;;2.60;99.90;;;;;;5050697;28;20645;-70
2020/12/08 03:31:21;;;;;;;48.92;22.10;;;2.60;99.90;;;;;;5057818;28;20037;-70
2020/12/08 03:33:47;;;;;;;43.80;20.85;;;2.70;99.90;;;;;;5053213;28;20025;-70
2020/12/08 03:36:15;;;;;;;49.53;22.10;;;2.70;99.90;;;;;;5053049;28;20016;-70
2020/12/08 03:38:44;;;;;;;50.15;23.08;;;2.70;99.90;;;;;;5053529;28;20056;-70
2020/12/08 03:41:10;;;;;;;57.92;26.35;;;2.70;99.90;;;;;;5054103;28;20033;-70
2020/12/08 03:43:36;;;;;;;55.75;25.60;;;2.80;99.90;;;;;;5058163;28;20040;-70
2020/12/08 03:46:04;;;;;;;52.50;24.38;;;2.80;99.90;;;;;;5059936;28;20079;-70
2020/12/08 03:48:30;;;;;;;63.45;27.23;;;2.90;99.90;;;;;;5056598;28;20044;-70
2020/12/08 03:50:56;;;;;;;62.47;27.80;;;2.80;99.90;;;;;;5061035;28;20832;-70
2020/12/08 03:53:22;;;;;;;100.93;32.38;;;2.80;99.90;;;;;;5056845;28;20116;-70
2020/12/08 03:55:48;;;;;;;128.88;34.60;;;2.80;99.90;;;;;;5058706;28;20107;-70
2020/12/08 03:58:13;;;;;;;68.88;27.38;;;2.80;99.90;;;;;;5064765;28;20047;-70
2020/12/08 04:00:40;;;;;;;74.68;28.95;;;2.90;99.90;;;;;;5060308;28;20284;-70
2020/12/08 04:03:06;;;;;;;64.20;28.05;;;2.90;99.90;;;;;;5064412;28;20032;-70
2020/12/08 04:05:31;;;;;;;52.72;24.40;;;3.00;99.90;;;;;;5055760;28;20496;-70
2020/12/08 04:07:57;;;;;;;57.75;25.35;;;3.00;99.90;;;;;;5052972;28;20033;-70
2020/12/08 04:10:23;;;;;;;58.72;25.73;;;3.10;99.90;;;;;;5052547;28;20075;-70
2020/12/08 04:12:49;;;;;;;51.50;23.33;;;3.00;99.90;;;;;;5050412;28;20024;-71
2020/12/08 04:15:14;;;;;;;51.15;24.40;;;3.00;99.90;;;;;;5054507;28;20480;-70
2020/12/08 04:17:40;;;;;;;52.53;24.05;;;3.10;99.90;;;;;;5053409;28;20476;-70
2020/12/08 04:20:07;;;;;;;57.50;24.85;;;3.10;99.90;;;;;;5038185;28;20025;-70
2020/12/08 04:22:34;;;;;;;62.70;25.00;;;3.10;99.90;;;;;;5051291;28;20029;-70
2020/12/08 04:24:59;;;;;;;53.60;24.05;;;3.10;99.90;;;;;;5052386;28;20021;-70
2020/12/08 04:27:25;;;;;;;60.38;25.77;;;3.20;99.90;;;;;;5054522;28;20037;-70
2020/12/08 04:29:50;;;;;;;51.70;25.13;;;3.20;99.90;;;;;;5052460;28;20469;-70
2020/12/08 04:32:16;;;;;;;63.20;25.45;;;3.30;99.90;;;;;;5052498;28;20040;-70
2020/12/08 04:34:42;;;;;;;50.72;23.98;;;3.30;99.90;;;;;;5052721;28;20439;-70
2020/12/08 04:37:08;;;;;;;56.60;24.52;;;3.30;99.90;;;;;;5054214;28;20040;-70
2020/12/08 04:39:35;;;;;;;57.25;25.40;;;3.30;99.90;;;;;;5054340;28;20035;-70
2020/12/08 04:42:01;;;;;;;62.53;27.30;;;3.30;99.90;;;;;;5053282;28;20047;-70
2020/12/08 04:44:29;;;;;;;55.25;25.55;;;3.30;99.90;;;;;;5049724;28;20482;-70
2020/12/08 04:46:56;;;;;;;52.42;24.40;;;3.30;99.90;;;;;;5052047;28;20044;-70
2020/12/08 04:49:25;;;;;;;64.00;26.10;;;3.30;99.90;;;;;;5052855;28;20020;-70
2020/12/08 04:51:51;;;;;;;50.83;25.08;;;3.40;99.90;;;;;;5052155;28;20029;-70
2020/12/08 04:54:18;;;;;;;48.60;23.98;;;3.40;99.90;;;;;;5053565;28;20025;-71
2020/12/08 04:56:47;;;;;;;69.97;25.58;;;3.30;99.90;;;;;;5051038;28;20553;-70
2020/12/08 04:59:20;;;;;;;50.47;23.02;;;3.30;99.90;;;;;;5054756;28;20021;-70
2020/12/08 05:01:46;;;;;;;64.53;25.40;;;3.30;99.90;;;;;;5055198;28;20033;-70
2020/12/08 05:04:12;;;;;;;53.42;23.83;;;3.30;99.90;;;;;;5056267;28;20481;-70
2020/12/08 05:06:37;;;;;;;58.95;24.60;;;3.30;99.90;;;;;;5062358;28;20090;-70
2020/12/08 05:09:08;;;;;;;59.53;23.75;;;3.20;99.90;;;;;;5049769;28;20060;-70
2020/12/08 05:11:34;;;;;;;50.25;23.83;;;3.20;99.90;;;;;;5057845;28;20100;-70
2020/12/08 05:14:05;;;;;;;58.95;25.60;;;3.20;99.90;;;;;;5060421;28;20174;-70
2020/12/08 05:16:32;;;;;;;65.88;25.85;;;3.20;99.90;;;;;;5056867;28;20033;-70
2020/12/08 05:19:09;;;;;;;52.35;23.42;;;3.30;99.90;;;;;;5060147;28;20021;-70
2020/12/08 05:21:45;;;;;;;52.85;23.63;;;3.20;99.90;;;;;;5068005;28;20029;-70
2020/12/08 05:24:21;;;;;;;48.88;23.67;;;3.30;99.90;;;;;;5055804;28;20579;-70
2020/12/08 05:27:04;;;;;;;53.47;24.10;;;3.30;99.90;;;;;;5061138;28;20032;-70
2020/12/08 05:29:32;;;;;;;46.03;22.08;;;3.30;99.90;;;;;;5056495;28;20432;-70
2020/12/08 05:32:18;;;;;;;50.38;23.65;;;3.30;99.90;;;;;;5061646;28;20493;-70
2020/12/08 05:34:48;;;;;;;47.22;22.88;;;3.40;99.90;;;;;;5061074;28;20056;-70
2020/12/08 05:37:19;;;;;;;52.28;23.73;;;3.40;99.90;;;;;;5063444;28;20086;-70
2020/12/08 05:39:45;;;;;;;57.47;24.52;;;3.30;99.90;;;;;;5058801;28;20627;-70
2020/12/08 05:42:17;;;;;;;47.33;23.50;;;3.30;99.90;;;;;;5064437;28;20029;-70
2020/12/08 05:44:52;;;;;;;55.92;24.90;;;3.20;99.90;;;;;;5066816;28;20033;-70
2020/12/08 05:47:19;;;;;;;58.47;23.77;;;3.30;99.90;;;;;;5055816;28;20028;-70
2020/12/08 05:49:45;;;;;;;53.75;23.40;;;3.30;99.90;;;;;;5059797;28;20017;-70
2020/12/08 05:52:11;;;;;;;51.35;23.17;;;3.20;99.90;;;;;;5061458;28;20040;-70
2020/12/08 05:54:37;;;;;;;49.30;22.77;;;3.20;99.90;;;;;;5056920;28;20021;-69
2020/12/08 05:57:15;;;;;;;64.68;24.52;;;3.20;99.90;;;;;;5062008;28;20064;-70
2020/12/08 05:59:41;;;;;;;56.20;24.58;;;3.20;99.90;;;;;;5065041;28;20021;-70
2020/12/08 06:02:07;;;;;;;47.97;22.77;;;3.20;99.90;;;;;;5059843;28;20029;-70
2020/12/08 06:04:42;;;;;;;58.47;25.20;;;3.30;99.90;;;;;;5058101;28;20021;-70
2020/12/08 06:07:09;;;;;;;59.70;25.23;;;3.30;99.90;;;;;;5069099;28;20028;-70
2020/12/08 06:09:35;;;;;;;52.95;23.17;;;3.30;99.90;;;;;;5067192;28;20047;-70
2020/12/08 06:12:14;;;;;;;62.58;25.95;;;3.30;99.90;;;;;;5059084;28;20028;-70
2020/12/08 06:14:39;;;;;;;65.95;27.25;;;3.30;99.90;;;;;;5063102;28;20036;-70
2020/12/08 06:17:07;;;;;;;55.05;24.65;;;3.30;99.90;;;;;;5064827;28;20033;-70
2020/12/08 06:19:34;;;;;;;66.68;25.48;;;3.20;99.90;;;;;;5060958;28;20370;-70
2020/12/08 06:22:09;;;;;;;83.28;28.92;;;3.30;99.90;;;;;;5061569;28;20031;-70
2020/12/08 06:24:34;;;;;;;82.40;28.88;;;3.20;99.90;;;;;;5060301;28;20096;-70
2020/12/08 06:27:00;;;;;;;73.90;27.52;;;3.20;99.90;;;;;;5063328;28;20378;-70
2020/12/08 06:29:25;;;;;;;63.63;25.35;;;3.30;99.90;;;;;;5059350;28;20070;-70
2020/12/08 06:31:52;;;;;;;52.60;24.27;;;3.30;99.90;;;;;;5063570;28;20029;-71
2020/12/08 06:34:21;;;;;;;60.00;27.73;;;3.20;99.90;;;;;;5054694;28;20065;-70
2020/12/08 06:36:47;;;;;;;51.25;24.30;;;3.30;99.90;;;;;;5059262;28;20051;-70
2020/12/08 06:39:13;;;;;;;51.95;24.92;;;3.30;99.90;;;;;;5060928;28;20068;-70
2020/12/08 06:41:42;;;;;;;63.25;25.67;;;3.30;99.90;;;;;;5062175;28;20052;-70
2020/12/08 06:44:15;;;;;;;61.35;26.13;;;3.30;99.90;;;;;;5059687;28;20039;-70
2020/12/08 06:47:10;;;;;;;78.05;27.83;;;3.30;99.90;;;;;;5063343;28;20416;-70
2020/12/08 06:49:38;;;;;;;54.33;24.73;;;3.20;99.90;;;;;;5045557;28;20040;-70
2020/12/08 06:52:03;;;;;;;49.45;24.55;;;3.20;99.90;;;;;;5061549;28;20047;-70
2020/12/08 06:54:29;;;;;;;59.03;24.77;;;3.30;99.90;;;;;;5061859;28;20462;-70
2020/12/08 06:57:07;;;;;;;54.75;25.13;;;3.30;99.90;;;;;;5065060;28;20044;-70
2020/12/08 06:59:33;;;;;;;55.13;25.55;;;3.30;99.90;;;;;;5069027;28;20025;-70
2020/12/08 07:01:59;;;;;;;56.50;23.67;;;3.20;99.90;;;;;;5054572;28;20028;-70
2020/12/08 07:04:26;;;;;;;51.90;24.70;;;3.20;99.90;;;;;;5057337;28;20431;-70
2020/12/08 07:06:52;;;;;;;52.75;23.48;;;3.30;99.90;;;;;;5060000;28;20029;-70
2020/12/08 07:09:18;;;;;;;51.10;24.30;;;3.30;99.90;;;;;;5055815;28;20024;-70
2020/12/08 07:11:44;;;;;;;51.63;22.70;;;3.30;99.90;;;;;;5062011;28;20024;-70
2020/12/08 07:14:10;;;;;;;65.15;24.23;;;3.30;99.90;;;;;;5066747;28;20056;-70
2020/12/08 07:16:36;;;;;;;50.78;23.58;;;3.30;99.90;;;;;;5058946;28;20058;-70
2020/12/08 07:19:07;;;;;;;49.10;24.55;;;3.30;99.90;;;;;;5057242;28;20413;-70
2020/12/08 07:21:33;;;;;;;51.95;21.88;;;3.30;99.90;;;;;;5061713;28;20442;-70
2020/12/08 07:23:59;;;;;;;49.03;22.33;;;3.30;99.90;;;;;;5063591;28;20074;-70
2020/12/08 07:26:29;;;;;;;54.70;24.15;;;3.30;99.90;;;;;;5058552;28;20021;-70
2020/12/08 07:28:57;;;;;;;65.10;25.85;;;3.30;99.90;;;;;;5061431;28;20032;-70
2020/12/08 07:31:31;;;;;;;62.03;25.13;;;3.30;99.90;;;;;;5062360;28;20157;-70
2020/12/08 07:34:01;;;;;;;48.15;22.52;;;3.30;99.90;;;;;;5066869;28;20024;-70
2020/12/08 07:36:28;;;;;;;48.10;21.83;;;3.30;99.90;;;;;;5063001;28;20072;-69
2020/12/08 07:38:55;;;;;;;57.47;25.17;;;3.30;99.90;;;;;;5067432;28;20040;-70
2020/12/08 07:41:23;;;;;;;52.38;24.02;;;3.40;99.90;;;;;;5060608;28;20056;-70
2020/12/08 07:43:50;;;;;;;66.93;25.58;;;3.30;99.90;;;;;;5058640;28;20028;-70
2020/12/08 07:46:51;;;;;;;54.78;23.42;;;3.30;99.90;;;;;;5058963;28;20017;-69
2020/12/08 07:49:17;;;;;;;55.97;25.25;;;3.30;99.90;;;;;;5057666;28;20097;-70
2020/12/08 07:51:48;;;;;;;61.35;26.00;;;3.30;99.90;;;;;;5065095;28;20076;-70
2020/12/08 07:54:14;;;;;;;61.38;25.63;;;3.40;99.90;;;;;;5055534;28;20074;-69
2020/12/08 07:56:39;;;;;;;73.10;28.23;;;3.30;99.90;;;;;;5056474;28;20544;-70
2020/12/08 07:59:06;;;;;;;57.15;23.80;;;3.40;99.90;;;;;;5062024;28;20104;-70
2020/12/08 08:01:42;;;;;;;61.33;25.75;;;3.40;99.90;;;;;;5049146;28;20485;-70
2020/12/08 08:04:11;;;;;;;50.60;22.13;;;3.40;99.90;;;;;;5056900;28;21704;-70
2020/12/08 08:06:38;;;;;;;54.15;24.20;;;3.30;99.90;;;;;;5062295;28;20025;-70
2020/12/08 08:09:07;;;;;;;58.20;26.70;;;3.30;99.90;;;;;;5060123;28;20029;-69
2020/12/08 08:11:35;;;;;;;59.42;27.17;;;3.40;99.90;;;;;;5054953;28;20543;-70
2020/12/08 08:14:00;;;;;;;69.97;27.85;;;3.40;99.90;;;;;;5057235;28;20017;-70
2020/12/08 08:16:26;;;;;;;70.13;27.90;;;3.40;99.90;;;;;;5052059;28;20089;-70
2020/12/08 08:18:52;;;;;;;63.88;27.52;;;3.40;99.90;;;;;;5055044;28;20470;-70
2020/12/08 08:21:19;;;;;;;63.47;26.98;;;3.30;99.90;;;;;;5064401;28;20021;-70
2020/12/08 08:23:45;;;;;;;57.35;25.83;;;3.30;99.90;;;;;;5057081;28;20481;-71
2020/12/08 08:26:11;;;;;;;55.55;25.25;;;3.40;99.90;;;;;;5053635;28;20068;-70
2020/12/08 08:28:37;;;;;;;61.33;28.33;;;3.50;99.90;;;;;;5055624;28;20052;-70
2020/12/08 08:31:02;;;;;;;76.35;32.58;;;3.50;99.90;;;;;;5055757;28;20501;-69
2020/12/08 08:33:29;;;;;;;61.25;26.88;;;3.50;99.90;;;;;;5068644;28;20028;-69
2020/12/08 08:35:54;;;;;;;67.43;28.83;;;3.50;99.90;;;;;;5059607;28;20024;-69
2020/12/08 08:38:21;;;;;;;54.58;24.75;;;3.60;99.90;;;;;;5067576;28;20164;-70
2020/12/08 08:40:48;;;;;;;46.80;23.08;;;3.50;99.90;;;;;;5063394;28;20040;-70
2020/12/08 08:43:13;;;;;;;54.75;25.10;;;3.60;99.90;;;;;;5060207;28;20818;-70
2020/12/08 08:45:39;;;;;;;58.03;25.08;;;3.60;99.90;;;;;;5064674;28;20017;-70
2020/12/08 08:48:05;;;;;;;56.58;25.58;;;3.60;99.90;;;;;;5058964;28;20104;-70
2020/12/08 08:50:31;;;;;;;66.07;27.15;;;3.60;99.90;;;;;;5060032;28;20040;-70
2020/12/08 08:52:57;;;;;;;65.05;28.60;;;3.50;99.90;;;;;;5066959;28;20024;-70
2020/12/08 08:55:22;;;;;;;63.85;29.23;;;3.50;99.90;;;;;;5061003;28;20027;-69
2020/12/08 08:57:48;;;;;;;63.80;28.83;;;3.50;99.90;;;;;;5051444;28;20079;-69
2020/12/08 09:00:14;;;;;;;67.82;29.05;;;3.50;99.90;;;;;;5055460;28;20021;-69
2020/12/08 09:02:39;;;;;;;70.60;28.55;;;3.50;99.90;;;;;;5055544;28;20029;-69
2020/12/08 09:05:06;;;;;;;69.13;28.05;;;3.40;99.90;;;;;;5058241;28;20039;-70
2020/12/08 09:07:32;;;;;;;70.38;28.67;;;3.50;99.90;;;;;;5057894;28;20612;-70
2020/12/08 09:09:58;;;;;;;63.15;27.73;;;3.50;99.90;;;;;;5053073;28;20052;-70
2020/12/08 09:12:24;;;;;;;63.47;27.60;;;3.50;99.90;;;;;;5053827;28;20035;-69
2020/12/08 09:14:53;;;;;;;67.88;29.45;;;3.50;99.90;;;;;;5054786;28;20041;-70
2020/12/08 09:17:18;;;;;;;67.40;30.40;;;3.50;99.90;;;;;;5053026;28;20051;-69
2020/12/08 09:19:44;;;;;;;91.68;33.83;;;3.60;99.90;;;;;;5056984;28;20147;-70
2020/12/08 09:22:10;;;;;;;65.28;29.17;;;3.60;99.90;;;;;;5051390;28;20544;-70
2020/12/08 09:24:36;;;;;;;62.97;29.58;;;3.60;99.90;;;;;;5048248;28;20021;-69
2020/12/08 09:27:04;;;;;;;57.10;27.17;;;3.70;99.90;;;;;;5056904;28;20073;-69
2020/12/08 09:29:29;;;;;;;74.88;32.55;;;3.70;99.90;;;;;;5050326;28;20029;-70
2020/12/08 09:31:55;;;;;;;67.63;30.13;;;3.70;99.90;;;;;;5052852;28;20108;-69
2020/12/08 09:34:22;;;;;;;66.80;30.60;;;3.70;99.90;;;;;;5057470;28;20036;-70
2020/12/08 09:36:54;;;;;;;62.55;29.77;;;3.80;99.90;;;;;;5051974;28;20040;-70
2020/12/08 09:39:20;;;;;;;63.00;29.10;;;3.80;99.90;;;;;;5053516;28;20024;-70
2020/12/08 09:41:46;;;;;;;64.30;28.63;;;3.80;99.90;;;;;;5055402;28;20040;-69
2020/12/08 09:44:12;;;;;;;60.75;30.48;;;3.80;99.90;;;;;;5049987;28;20520;-69
2020/12/08 09:46:42;;;;;;;80.18;30.40;;;3.90;99.90;;;;;;5057011;28;20090;-70
2020/12/08 09:49:09;;;;;;;62.90;27.98;;;3.90;99.90;;;;;;5053209;28;20477;-71
2020/12/08 09:51:35;;;;;;;57.38;25.45;;;4.00;99.90;;;;;;5059495;28;20111;-75
2020/12/08 09:54:01;;;;;;;62.63;27.25;;;4.00;99.90;;;;;;5060205;28;20020;-73
2020/12/08 09:56:27;;;;;;;55.08;27.05;;;4.10;99.90;;;;;;5055492;28;20025;-74
2020/12/08 09:58:53;;;;;;;55.42;26.15;;;4.20;99.90;;;;;;5052423;28;20032;-74
2020/12/08 10:01:33;;;;;;;60.67;28.95;;;4.20;99.90;;;;;;5054883;28;20484;-75
2020/12/08 10:03:59;;;;;;;58.53;27.63;;;4.30;99.90;;;;;;5052181;28;20032;-73
2020/12/08 10:06:25;;;;;;;69.28;30.30;;;4.40;99.90;;;;;;5056288;28;20373;-74
2020/12/08 10:08:55;;;;;;;73.15;32.70;;;4.40;99.90;;;;;;5049551;28;20087;-73
2020/12/08 10:11:22;;;;;;;68.35;32.53;;;4.50;99.90;;;;;;5047575;28;20527;-74
2020/12/08 10:13:48;;;;;;;89.78;38.20;;;4.60;99.90;;;;;;5053029;28;20067;-73
2020/12/08 10:16:22;;;;;;;87.93;38.58;;;4.60;99.90;;;;;;5055823;28;21615;-74
2020/12/08 10:18:49;;;;;;;85.63;42.33;;;4.70;99.90;;;;;;5055988;28;20033;-74
2020/12/08 10:21:19;;;;;;;93.15;42.88;;;4.80;99.90;;;;;;5058617;28;20025;-73
2020/12/08 10:23:44;;;;;;;83.55;40.30;;;4.90;99.90;;;;;;5058655;28;20535;-73
2020/12/08 10:26:10;;;;;;;81.55;39.83;;;5.00;99.90;;;;;;5061064;28;20032;-74
2020/12/08 10:28:37;;;;;;;84.20;40.90;;;5.00;99.90;;;;;;5063513;28;20036;-74
2020/12/08 10:31:02;;;;;;;89.05;41.35;;;5.10;99.90;;;;;;5056413;28;20052;-74
2020/12/08 10:33:28;;;;;;;85.50;40.33;;;5.10;99.90;;;;;;5055987;28;20367;-73
2020/12/08 10:35:54;;;;;;;88.00;42.00;;;5.10;99.90;;;;;;5059930;28;20389;-71
2020/12/08 10:38:19;;;;;;;75.15;37.20;;;5.20;99.90;;;;;;5061913;28;20120;-71
2020/12/08 10:40:45;;;;;;;74.43;37.65;;;5.20;99.90;;;;;;5053928;28;20033;-72
2020/12/08 10:43:11;;;;;;;78.65;39.90;;;5.30;99.90;;;;;;5059579;28;20045;-71
2020/12/08 10:45:36;;;;;;;84.00;42.22;;;5.40;99.90;;;;;;5058271;28;20024;-71
2020/12/08 10:48:02;;;;;;;76.85;38.97;;;5.50;99.90;;;;;;5061278;28;20074;-71
2020/12/08 10:50:28;;;;;;;73.05;37.20;;;5.50;99.90;;;;;;5066287;28;20017;-71
2020/12/08 10:52:53;;;;;;;76.00;37.53;;;5.50;99.90;;;;;;5056499;28;20040;-71
2020/12/08 10:55:19;;;;;;;77.07;38.85;;;5.50;99.90;;;;;;5052230;28;20377;-71
2020/12/08 10:57:45;;;;;;;85.95;42.22;;;5.60;99.90;;;;;;5063654;28;20036;-71
2020/12/08 11:00:10;;;;;;;73.43;38.05;;;5.60;99.90;;;;;;5065308;28;20032;-72
2020/12/08 11:02:36;;;;;;;67.43;35.35;;;5.60;99.90;;;;;;5058911;28;20367;-72
2020/12/08 11:05:04;;;;;;;71.63;36.70;;;5.60;99.90;;;;;;5059077;28;20066;-71
2020/12/08 11:07:30;;;;;;;71.88;37.88;;;5.70;99.90;;;;;;5066630;28;20056;-71
2020/12/08 11:09:56;;;;;;;83.45;41.65;;;5.80;99.90;;;;;;5058300;28;20032;-72
2020/12/08 11:12:22;;;;;;;80.80;39.08;;;5.70;99.90;;;;;;5059842;28;20029;-71
2020/12/08 11:14:47;;;;;;;79.40;40.25;;;5.80;99.90;;;;;;5064625;28;20029;-71
2020/12/08 11:17:13;;;;;;;74.85;39.35;;;5.70;99.90;;;;;;5057122;28;20037;-71
2020/12/08 11:19:39;;;;;;;67.00;34.95;;;5.70;99.90;;;;;;5060543;28;20529;-72
2020/12/08 11:22:06;;;;;;;66.63;35.95;;;5.80;99.90;;;;;;5061922;28;20029;-71
2020/12/08 11:24:32;;;;;;;60.45;31.17;;;5.90;99.90;;;;;;5063270;28;20028;-72
2020/12/08 11:26:58;;;;;;;61.95;34.20;;;5.90;99.90;;;;;;5055394;28;20745;-72
2020/12/08 11:29:24;;;;;;;57.13;31.08;;;5.90;99.90;;;;;;5068355;28;20044;-72
2020/12/08 11:31:52;;;;;;;51.10;29.23;;;5.80;99.90;;;;;;5063299;28;20044;-72
2020/12/08 11:34:18;;;;;;;58.70;29.67;;;5.80;99.90;;;;;;5058991;28;20017;-71
2020/12/08 11:36:44;;;;;;;55.33;30.25;;;5.80;99.90;;;;;;5057683;28;20036;-71
2020/12/08 11:39:10;;;;;;;52.33;29.65;;;5.90;99.90;;;;;;5058251;28;20555;-72
2020/12/08 11:41:41;;;;;;;53.40;28.65;;;5.90;99.90;;;;;;5058952;28;20040;-72
2020/12/08 11:44:07;;;;;;;52.70;29.30;;;5.90;99.90;;;;;;5065202;28;20025;-72
2020/12/08 11:46:32;;;;;;;54.67;31.40;;;5.90;99.90;;;;;;5063476;28;20025;-72
2020/12/08 11:48:58;;;;;;;52.13;28.92;;;6.00;99.90;;;;;;5064029;28;20053;-72
2020/12/08 11:51:23;;;;;;;53.65;28.42;;;6.00;99.90;;;;;;5068757;28;20020;-72
2020/12/08 11:53:49;;;;;;;46.20;26.92;;;5.90;99.90;;;;;;5057336;28;20028;-71
2020/12/08 11:56:14;;;;;;;48.70;27.17;;;6.00;99.90;;;;;;5053739;28;20866;-72
2020/12/08 11:58:40;;;;;;;45.83;26.90;;;6.00;99.90;;;;;;5056901;28;20047;-72
2020/12/08 12:01:07;;;;;;;47.20;26.02;;;6.10;99.90;;;;;;5064175;28;20503;-72
2020/12/08 12:03:32;;;;;;;44.05;27.10;;;6.20;99.90;;;;;;5058196;28;20127;-72
2020/12/08 12:05:58;;;;;;;49.78;28.33;;;6.20;99.90;;;;;;5062154;28;20107;-72
2020/12/08 12:08:23;;;;;;;41.10;24.90;;;6.10;99.90;;;;;;5054998;28;20017;-72
2020/12/08 12:10:49;;;;;;;40.13;23.83;;;6.20;99.90;;;;;;5062028;28;20044;-72
2020/12/08 12:13:15;;;;;;;41.03;24.33;;;6.20;99.90;;;;;;5060452;28;20042;-72
2020/12/08 12:15:40;;;;;;;40.72;23.50;;;6.20;99.90;;;;;;5060399;28;20043;-72
2020/12/08 12:18:07;;;;;;;42.63;24.13;;;6.30;99.90;;;;;;5059068;28;20040;-72
2020/12/08 12:20:33;;;;;;;39.70;23.50;;;6.20;99.90;;;;;;5061712;28;20481;-72
2020/12/08 12:22:59;;;;;;;32.67;19.33;;;6.20;99.90;;;;;;5057914;28;20029;-72
2020/12/08 12:25:25;;;;;;;32.20;19.27;;;6.20;99.90;;;;;;5058791;28;20158;-72
2020/12/08 12:27:50;;;;;;;29.50;17.58;;;6.20;99.90;;;;;;5066051;28;20041;-72
2020/12/08 12:30:16;;;;;;;37.17;22.05;;;6.30;99.90;;;;;;5059851;28;20103;-72
2020/12/08 12:32:42;;;;;;;35.97;20.80;;;6.30;99.90;;;;;;5064234;28;20068;-72
2020/12/08 12:35:07;;;;;;;32.45;19.42;;;6.40;99.90;;;;;;5055099;28;20495;-72